sensor_id;sensor_type;location;lat;lon;timestamp;P1;durP1;ratioP1;P2;durP2;ratioP2
52868;SDS011;39100;53.480;6.158;2024-01-06T00:01:22;2.45;;;1.48;;
52868;SDS011;39100;53.480;6.158;2024-01-06T00:03:48;6.00;;;1.67;;
52868;SDS011;39100;53.480;6.158;2024-01-06T00:06:13;1.88;;;1.05;;
52868;SDS011;39100;53.480;6.158;2024-01-06T00:08:39;4.63;;;0.90;;
52868;SDS011;39100;53.480;6.158;2024-01-06T00:11:05;2.97;;;1.05;;
52868;SDS011;39100;53.480;6.158;2024-01-06T00:13:30;2.35;;;0.90;;
52868;SDS011;39100;53.480;6.158;2024-01-06T00:15:56;1.55;;;1.13;;
52868;SDS011;39100;53.480;6.158;2024-01-06T00:18:21;2.53;;;1.13;;
52868;SDS011;39100;53.480;6.158;2024-01-06T00:20:47;2.72;;;1.30;;
52868;SDS011;39100;53.480;6.158;2024-01-06T00:23:13;2.53;;;0.98;;
52868;SDS011;39100;53.480;6.158;2024-01-06T00:25:38;1.45;;;1.00;;
52868;SDS011;39100;53.480;6.158;2024-01-06T00:28:04;2.13;;;0.82;;
52868;SDS011;39100;53.480;6.158;2024-01-06T00:30:30;2.88;;;0.80;;
52868;SDS011;39100;53.480;6.158;2024-01-06T00:32:55;1.77;;;0.90;;
52868;SDS011;39100;53.480;6.158;2024-01-06T00:35:21;2.80;;;1.15;;
52868;SDS011;39100;53.480;6.158;2024-01-06T00:37:46;1.13;;;1.02;;
52868;SDS011;39100;53.480;6.158;2024-01-06T00:40:12;1.35;;;1.05;;
52868;SDS011;39100;53.480;6.158;2024-01-06T00:42:38;0.80;;;0.50;;
52868;SDS011;39100;53.480;6.158;2024-01-06T00:45:03;1.00;;;0.90;;
52868;SDS011;39100;53.480;6.158;2024-01-06T00:47:30;1.05;;;0.70;;
52868;SDS011;39100;53.480;6.158;2024-01-06T00:49:56;1.92;;;0.77;;
52868;SDS011;39100;53.480;6.158;2024-01-06T00:52:21;0.68;;;0.65;;
52868;SDS011;39100;53.480;6.158;2024-01-06T00:54:47;1.48;;;0.73;;
52868;SDS011;39100;53.480;6.158;2024-01-06T00:57:13;1.13;;;0.70;;
52868;SDS011;39100;53.480;6.158;2024-01-06T00:59:38;1.30;;;1.20;;
52868;SDS011;39100;53.480;6.158;2024-01-06T01:02:04;0.98;;;0.73;;
52868;SDS011;39100;53.480;6.158;2024-01-06T01:04:29;1.65;;;0.73;;
52868;SDS011;39100;53.480;6.158;2024-01-06T01:06:55;1.50;;;0.80;;
52868;SDS011;39100;53.480;6.158;2024-01-06T01:09:20;3.03;;;0.82;;
52868;SDS011;39100;53.480;6.158;2024-01-06T01:11:46;2.22;;;1.40;;
52868;SDS011;39100;53.480;6.158;2024-01-06T01:14:11;1.85;;;0.40;;
52868;SDS011;39100;53.480;6.158;2024-01-06T01:16:37;1.05;;;0.55;;
52868;SDS011;39100;53.480;6.158;2024-01-06T01:19:03;1.52;;;0.52;;
52868;SDS011;39100;53.480;6.158;2024-01-06T01:21:28;2.35;;;0.55;;
52868;SDS011;39100;53.480;6.158;2024-01-06T01:23:54;0.50;;;0.50;;
52868;SDS011;39100;53.480;6.158;2024-01-06T01:26:19;1.15;;;0.65;;
52868;SDS011;39100;53.480;6.158;2024-01-06T01:28:45;0.80;;;0.47;;
52868;SDS011;39100;53.480;6.158;2024-01-06T01:31:11;1.58;;;0.68;;
52868;SDS011;39100;53.480;6.158;2024-01-06T01:33:38;3.83;;;1.42;;
52868;SDS011;39100;53.480;6.158;2024-01-06T01:36:04;3.25;;;0.60;;
52868;SDS011;39100;53.480;6.158;2024-01-06T01:38:29;2.00;;;0.88;;
52868;SDS011;39100;53.480;6.158;2024-01-06T01:40:55;0.98;;;0.70;;
52868;SDS011;39100;53.480;6.158;2024-01-06T01:43:20;2.60;;;1.35;;
52868;SDS011;39100;53.480;6.158;2024-01-06T01:45:48;1.35;;;0.70;;
52868;SDS011;39100;53.480;6.158;2024-01-06T01:48:17;0.57;;;0.57;;
52868;SDS011;39100;53.480;6.158;2024-01-06T01:50:44;2.72;;;0.63;;
52868;SDS011;39100;53.480;6.158;2024-01-06T01:53:11;1.55;;;0.50;;
52868;SDS011;39100;53.480;6.158;2024-01-06T01:55:38;3.78;;;0.80;;
52868;SDS011;39100;53.480;6.158;2024-01-06T01:58:05;2.72;;;0.52;;
52868;SDS011;39100;53.480;6.158;2024-01-06T02:00:32;1.10;;;0.70;;
52868;SDS011;39100;53.480;6.158;2024-01-06T02:02:58;3.67;;;0.63;;
52868;SDS011;39100;53.480;6.158;2024-01-06T02:05:24;3.30;;;0.68;;
52868;SDS011;39100;53.480;6.158;2024-01-06T02:07:50;3.72;;;0.80;;
52868;SDS011;39100;53.480;6.158;2024-01-06T02:10:16;2.30;;;0.60;;
52868;SDS011;39100;53.480;6.158;2024-01-06T02:12:42;2.42;;;0.70;;
52868;SDS011;39100;53.480;6.158;2024-01-06T02:15:08;1.33;;;0.50;;
52868;SDS011;39100;53.480;6.158;2024-01-06T02:17:34;4.80;;;1.02;;
52868;SDS011;39100;53.480;6.158;2024-01-06T02:19:59;1.90;;;0.50;;
52868;SDS011;39100;53.480;6.158;2024-01-06T02:22:25;0.95;;;0.32;;
52868;SDS011;39100;53.480;6.158;2024-01-06T02:24:50;2.95;;;0.60;;
52868;SDS011;39100;53.480;6.158;2024-01-06T02:27:16;0.80;;;0.47;;
52868;SDS011;39100;53.480;6.158;2024-01-06T02:29:41;3.58;;;0.90;;
52868;SDS011;39100;53.480;6.158;2024-01-06T02:32:07;1.10;;;0.60;;
52868;SDS011;39100;53.480;6.158;2024-01-06T02:34:32;1.42;;;0.75;;
52868;SDS011;39100;53.480;6.158;2024-01-06T02:36:59;2.30;;;0.50;;
52868;SDS011;39100;53.480;6.158;2024-01-06T02:39:25;0.65;;;0.50;;
52868;SDS011;39100;53.480;6.158;2024-01-06T02:41:50;1.67;;;0.52;;
52868;SDS011;39100;53.480;6.158;2024-01-06T02:44:16;0.77;;;0.50;;
52868;SDS011;39100;53.480;6.158;2024-01-06T02:46:41;1.10;;;0.75;;
52868;SDS011;39100;53.480;6.158;2024-01-06T02:49:07;1.90;;;1.00;;
52868;SDS011;39100;53.480;6.158;2024-01-06T02:51:33;3.88;;;1.13;;
52868;SDS011;39100;53.480;6.158;2024-01-06T02:53:59;2.50;;;1.30;;
52868;SDS011;39100;53.480;6.158;2024-01-06T02:56:24;1.27;;;0.80;;
52868;SDS011;39100;53.480;6.158;2024-01-06T02:58:50;5.20;;;1.05;;
52868;SDS011;39100;53.480;6.158;2024-01-06T03:01:16;2.33;;;1.63;;
52868;SDS011;39100;53.480;6.158;2024-01-06T03:03:42;0.93;;;0.50;;
52868;SDS011;39100;53.480;6.158;2024-01-06T03:06:08;1.92;;;0.93;;
52868;SDS011;39100;53.480;6.158;2024-01-06T03:08:33;4.53;;;1.13;;
52868;SDS011;39100;53.480;6.158;2024-01-06T03:10:59;1.33;;;0.70;;
52868;SDS011;39100;53.480;6.158;2024-01-06T03:13:26;4.00;;;0.90;;
52868;SDS011;39100;53.480;6.158;2024-01-06T03:15:51;3.60;;;1.10;;
52868;SDS011;39100;53.480;6.158;2024-01-06T03:18:17;3.67;;;1.02;;
52868;SDS011;39100;53.480;6.158;2024-01-06T03:20:42;1.73;;;1.00;;
52868;SDS011;39100;53.480;6.158;2024-01-06T03:23:08;2.20;;;1.00;;
52868;SDS011;39100;53.480;6.158;2024-01-06T03:25:33;4.80;;;1.23;;
52868;SDS011;39100;53.480;6.158;2024-01-06T03:27:59;2.35;;;1.00;;
52868;SDS011;39100;53.480;6.158;2024-01-06T03:30:24;0.85;;;0.80;;
52868;SDS011;39100;53.480;6.158;2024-01-06T03:32:50;2.55;;;1.10;;
52868;SDS011;39100;53.480;6.158;2024-01-06T03:35:15;3.92;;;1.02;;
52868;SDS011;39100;53.480;6.158;2024-01-06T03:37:41;1.55;;;1.10;;
52868;SDS011;39100;53.480;6.158;2024-01-06T03:40:08;2.88;;;1.20;;
52868;SDS011;39100;53.480;6.158;2024-01-06T03:42:34;1.38;;;0.98;;
52868;SDS011;39100;53.480;6.158;2024-01-06T03:45:01;2.88;;;1.00;;
52868;SDS011;39100;53.480;6.158;2024-01-06T03:47:27;2.30;;;0.90;;
52868;SDS011;39100;53.480;6.158;2024-01-06T03:49:53;1.33;;;0.82;;
52868;SDS011;39100;53.480;6.158;2024-01-06T03:52:18;5.13;;;1.42;;
52868;SDS011;39100;53.480;6.158;2024-01-06T03:54:44;2.75;;;1.15;;
52868;SDS011;39100;53.480;6.158;2024-01-06T03:57:10;1.95;;;1.05;;
52868;SDS011;39100;53.480;6.158;2024-01-06T03:59:35;1.77;;;0.70;;
52868;SDS011;39100;53.480;6.158;2024-01-06T04:02:01;3.50;;;1.10;;
52868;SDS011;39100;53.480;6.158;2024-01-06T04:04:27;0.95;;;0.82;;
52868;SDS011;39100;53.480;6.158;2024-01-06T04:06:52;1.80;;;0.80;;
52868;SDS011;39100;53.480;6.158;2024-01-06T04:09:18;2.95;;;1.10;;
52868;SDS011;39100;53.480;6.158;2024-01-06T04:11:43;1.63;;;0.73;;
52868;SDS011;39100;53.480;6.158;2024-01-06T04:14:09;3.10;;;0.73;;
52868;SDS011;39100;53.480;6.158;2024-01-06T04:16:34;2.65;;;0.77;;
52868;SDS011;39100;53.480;6.158;2024-01-06T04:19:00;2.55;;;1.17;;
52868;SDS011;39100;53.480;6.158;2024-01-06T04:21:26;2.88;;;0.88;;
52868;SDS011;39100;53.480;6.158;2024-01-06T04:23:51;2.25;;;0.90;;
52868;SDS011;39100;53.480;6.158;2024-01-06T04:26:17;1.58;;;0.85;;
52868;SDS011;39100;53.480;6.158;2024-01-06T04:28:42;0.73;;;0.65;;
52868;SDS011;39100;53.480;6.158;2024-01-06T04:31:08;3.13;;;0.93;;
52868;SDS011;39100;53.480;6.158;2024-01-06T04:33:33;2.42;;;1.10;;
52868;SDS011;39100;53.480;6.158;2024-01-06T04:35:59;2.88;;;1.40;;
52868;SDS011;39100;53.480;6.158;2024-01-06T04:38:26;2.42;;;0.90;;
52868;SDS011;39100;53.480;6.158;2024-01-06T04:40:52;0.93;;;0.85;;
52868;SDS011;39100;53.480;6.158;2024-01-06T04:43:18;2.20;;;0.88;;
52868;SDS011;39100;53.480;6.158;2024-01-06T04:45:43;1.95;;;1.10;;
52868;SDS011;39100;53.480;6.158;2024-01-06T04:48:09;1.05;;;0.93;;
52868;SDS011;39100;53.480;6.158;2024-01-06T04:50:34;2.40;;;0.88;;
52868;SDS011;39100;53.480;6.158;2024-01-06T04:53:00;2.03;;;0.93;;
52868;SDS011;39100;53.480;6.158;2024-01-06T04:55:25;4.30;;;1.00;;
52868;SDS011;39100;53.480;6.158;2024-01-06T04:57:51;2.47;;;1.13;;
52868;SDS011;39100;53.480;6.158;2024-01-06T05:00:16;0.93;;;0.60;;
52868;SDS011;39100;53.480;6.158;2024-01-06T05:02:42;3.13;;;0.75;;
52868;SDS011;39100;53.480;6.158;2024-01-06T05:05:08;0.95;;;0.70;;
52868;SDS011;39100;53.480;6.158;2024-01-06T05:07:33;3.15;;;0.98;;
52868;SDS011;39100;53.480;6.158;2024-01-06T05:09:59;3.30;;;0.82;;
52868;SDS011;39100;53.480;6.158;2024-01-06T05:12:24;3.30;;;0.80;;
52868;SDS011;39100;53.480;6.158;2024-01-06T05:14:50;1.08;;;0.80;;
52868;SDS011;39100;53.480;6.158;2024-01-06T05:17:16;3.55;;;0.82;;
52868;SDS011;39100;53.480;6.158;2024-01-06T05:19:41;0.90;;;0.70;;
52868;SDS011;39100;53.480;6.158;2024-01-06T05:22:07;2.35;;;0.70;;
52868;SDS011;39100;53.480;6.158;2024-01-06T05:24:32;1.25;;;0.70;;
52868;SDS011;39100;53.480;6.158;2024-01-06T05:26:58;3.42;;;0.70;;
52868;SDS011;39100;53.480;6.158;2024-01-06T05:29:23;2.22;;;1.10;;
52868;SDS011;39100;53.480;6.158;2024-01-06T05:31:51;4.05;;;1.02;;
52868;SDS011;39100;53.480;6.158;2024-01-06T05:34:16;1.52;;;0.98;;
52868;SDS011;39100;53.480;6.158;2024-01-06T05:36:42;1.55;;;0.90;;
52868;SDS011;39100;53.480;6.158;2024-01-06T05:39:08;1.23;;;0.70;;
52868;SDS011;39100;53.480;6.158;2024-01-06T05:41:37;1.70;;;0.90;;
52868;SDS011;39100;53.480;6.158;2024-01-06T05:44:04;1.38;;;0.60;;
52868;SDS011;39100;53.480;6.158;2024-01-06T05:46:30;0.90;;;0.73;;
52868;SDS011;39100;53.480;6.158;2024-01-06T05:48:56;1.45;;;0.57;;
52868;SDS011;39100;53.480;6.158;2024-01-06T05:51:22;0.50;;;0.50;;
52868;SDS011;39100;53.480;6.158;2024-01-06T05:53:48;1.75;;;0.60;;
52868;SDS011;39100;53.480;6.158;2024-01-06T05:56:26;0.82;;;0.57;;
52868;SDS011;39100;53.480;6.158;2024-01-06T05:58:52;2.38;;;1.10;;
52868;SDS011;39100;53.480;6.158;2024-01-06T06:01:19;0.88;;;0.68;;
52868;SDS011;39100;53.480;6.158;2024-01-06T06:03:46;1.30;;;0.93;;
52868;SDS011;39100;53.480;6.158;2024-01-06T06:06:11;1.27;;;1.10;;
52868;SDS011;39100;53.480;6.158;2024-01-06T06:08:37;1.05;;;0.80;;
52868;SDS011;39100;53.480;6.158;2024-01-06T06:11:02;1.70;;;1.05;;
52868;SDS011;39100;53.480;6.158;2024-01-06T06:13:35;1.08;;;0.75;;
52868;SDS011;39100;53.480;6.158;2024-01-06T06:16:10;2.30;;;0.90;;
52868;SDS011;39100;53.480;6.158;2024-01-06T06:18:39;3.45;;;1.20;;
52868;SDS011;39100;53.480;6.158;2024-01-06T06:21:05;1.00;;;0.85;;
52868;SDS011;39100;53.480;6.158;2024-01-06T06:23:31;2.00;;;1.02;;
52868;SDS011;39100;53.480;6.158;2024-01-06T06:25:57;2.13;;;1.02;;
52868;SDS011;39100;53.480;6.158;2024-01-06T06:28:23;1.48;;;0.75;;
52868;SDS011;39100;53.480;6.158;2024-01-06T06:30:48;2.58;;;1.00;;
52868;SDS011;39100;53.480;6.158;2024-01-06T06:33:14;1.55;;;1.00;;
52868;SDS011;39100;53.480;6.158;2024-01-06T06:35:40;1.23;;;0.98;;
52868;SDS011;39100;53.480;6.158;2024-01-06T06:38:05;3.22;;;0.95;;
52868;SDS011;39100;53.480;6.158;2024-01-06T06:40:31;1.20;;;1.08;;
52868;SDS011;39100;53.480;6.158;2024-01-06T06:42:57;1.20;;;1.02;;
52868;SDS011;39100;53.480;6.158;2024-01-06T06:45:22;1.73;;;0.90;;
52868;SDS011;39100;53.480;6.158;2024-01-06T06:47:49;1.45;;;1.00;;
52868;SDS011;39100;53.480;6.158;2024-01-06T06:50:15;1.23;;;0.93;;
52868;SDS011;39100;53.480;6.158;2024-01-06T06:52:41;1.25;;;0.63;;
52868;SDS011;39100;53.480;6.158;2024-01-06T06:55:07;1.77;;;1.00;;
52868;SDS011;39100;53.480;6.158;2024-01-06T06:57:33;1.50;;;0.85;;
52868;SDS011;39100;53.480;6.158;2024-01-06T06:59:58;1.58;;;0.73;;
52868;SDS011;39100;53.480;6.158;2024-01-06T07:02:25;1.38;;;0.98;;
52868;SDS011;39100;53.480;6.158;2024-01-06T07:04:51;2.30;;;0.85;;
52868;SDS011;39100;53.480;6.158;2024-01-06T07:07:16;1.20;;;0.98;;
52868;SDS011;39100;53.480;6.158;2024-01-06T07:09:42;1.20;;;0.80;;
52868;SDS011;39100;53.480;6.158;2024-01-06T07:12:08;2.17;;;1.00;;
52868;SDS011;39100;53.480;6.158;2024-01-06T07:14:33;6.03;;;1.35;;
52868;SDS011;39100;53.480;6.158;2024-01-06T07:16:59;4.18;;;1.10;;
52868;SDS011;39100;53.480;6.158;2024-01-06T07:19:24;2.13;;;0.98;;
52868;SDS011;39100;53.480;6.158;2024-01-06T07:21:50;1.23;;;1.13;;
52868;SDS011;39100;53.480;6.158;2024-01-06T07:24:15;1.45;;;1.15;;
52868;SDS011;39100;53.480;6.158;2024-01-06T07:26:41;1.13;;;0.90;;
52868;SDS011;39100;53.480;6.158;2024-01-06T07:29:07;2.15;;;0.65;;
52868;SDS011;39100;53.480;6.158;2024-01-06T07:31:33;1.45;;;0.60;;
52868;SDS011;39100;53.480;6.158;2024-01-06T07:33:59;1.40;;;1.00;;
52868;SDS011;39100;53.480;6.158;2024-01-06T07:36:25;1.77;;;0.80;;
52868;SDS011;39100;53.480;6.158;2024-01-06T07:38:50;1.85;;;1.10;;
52868;SDS011;39100;53.480;6.158;2024-01-06T07:41:17;0.77;;;0.60;;
52868;SDS011;39100;53.480;6.158;2024-01-06T07:43:43;1.15;;;0.73;;
52868;SDS011;39100;53.480;6.158;2024-01-06T07:46:08;1.33;;;0.70;;
52868;SDS011;39100;53.480;6.158;2024-01-06T07:48:34;6.07;;;1.35;;
52868;SDS011;39100;53.480;6.158;2024-01-06T07:51:01;4.07;;;1.02;;
52868;SDS011;39100;53.480;6.158;2024-01-06T07:53:28;3.55;;;1.55;;
52868;SDS011;39100;53.480;6.158;2024-01-06T07:55:54;1.15;;;1.00;;
52868;SDS011;39100;53.480;6.158;2024-01-06T07:58:19;2.42;;;1.08;;
52868;SDS011;39100;53.480;6.158;2024-01-06T08:00:46;1.38;;;0.80;;
52868;SDS011;39100;53.480;6.158;2024-01-06T08:03:12;1.00;;;0.85;;
52868;SDS011;39100;53.480;6.158;2024-01-06T08:05:38;1.67;;;0.80;;
52868;SDS011;39100;53.480;6.158;2024-01-06T08:08:04;4.10;;;1.13;;
52868;SDS011;39100;53.480;6.158;2024-01-06T08:10:30;2.42;;;1.20;;
52868;SDS011;39100;53.480;6.158;2024-01-06T08:12:56;1.70;;;0.95;;
52868;SDS011;39100;53.480;6.158;2024-01-06T08:15:22;0.70;;;0.68;;
52868;SDS011;39100;53.480;6.158;2024-01-06T08:17:47;1.88;;;0.93;;
52868;SDS011;39100;53.480;6.158;2024-01-06T08:20:13;1.48;;;0.60;;
52868;SDS011;39100;53.480;6.158;2024-01-06T08:22:39;3.22;;;1.27;;
52868;SDS011;39100;53.480;6.158;2024-01-06T08:25:04;1.13;;;0.93;;
52868;SDS011;39100;53.480;6.158;2024-01-06T08:27:32;1.77;;;1.05;;
52868;SDS011;39100;53.480;6.158;2024-01-06T08:29:58;2.78;;;1.02;;
52868;SDS011;39100;53.480;6.158;2024-01-06T08:32:23;4.78;;;1.00;;
52868;SDS011;39100;53.480;6.158;2024-01-06T08:34:49;1.00;;;0.90;;
52868;SDS011;39100;53.480;6.158;2024-01-06T08:37:14;0.90;;;0.90;;
52868;SDS011;39100;53.480;6.158;2024-01-06T08:39:40;1.77;;;0.82;;
52868;SDS011;39100;53.480;6.158;2024-01-06T08:42:06;2.22;;;0.90;;
52868;SDS011;39100;53.480;6.158;2024-01-06T08:44:31;1.25;;;0.98;;
52868;SDS011;39100;53.480;6.158;2024-01-06T08:46:57;3.38;;;1.25;;
52868;SDS011;39100;53.480;6.158;2024-01-06T08:49:23;0.90;;;0.70;;
52868;SDS011;39100;53.480;6.158;2024-01-06T08:51:49;1.25;;;0.60;;
52868;SDS011;39100;53.480;6.158;2024-01-06T08:54:15;3.50;;;1.05;;
52868;SDS011;39100;53.480;6.158;2024-01-06T08:56:40;1.80;;;1.10;;
52868;SDS011;39100;53.480;6.158;2024-01-06T08:59:06;1.17;;;0.75;;
52868;SDS011;39100;53.480;6.158;2024-01-06T09:01:32;1.65;;;0.80;;
52868;SDS011;39100;53.480;6.158;2024-01-06T09:03:59;3.38;;;1.13;;
52868;SDS011;39100;53.480;6.158;2024-01-06T09:06:24;4.60;;;1.67;;
52868;SDS011;39100;53.480;6.158;2024-01-06T09:08:50;3.30;;;1.25;;
52868;SDS011;39100;53.480;6.158;2024-01-06T09:11:16;2.80;;;0.90;;
52868;SDS011;39100;53.480;6.158;2024-01-06T09:13:41;1.55;;;1.00;;
52868;SDS011;39100;53.480;6.158;2024-01-06T09:16:07;1.10;;;0.98;;
52868;SDS011;39100;53.480;6.158;2024-01-06T09:18:32;1.25;;;0.77;;
52868;SDS011;39100;53.480;6.158;2024-01-06T09:20:58;2.15;;;0.85;;
52868;SDS011;39100;53.480;6.158;2024-01-06T09:23:23;0.70;;;0.70;;
52868;SDS011;39100;53.480;6.158;2024-01-06T09:25:49;3.05;;;1.13;;
52868;SDS011;39100;53.480;6.158;2024-01-06T09:28:16;2.28;;;1.00;;
52868;SDS011;39100;53.480;6.158;2024-01-06T09:30:42;2.65;;;1.30;;
52868;SDS011;39100;53.480;6.158;2024-01-06T09:33:08;1.65;;;1.35;;
52868;SDS011;39100;53.480;6.158;2024-01-06T09:35:33;1.48;;;1.08;;
52868;SDS011;39100;53.480;6.158;2024-01-06T09:37:59;5.93;;;1.73;;
52868;SDS011;39100;53.480;6.158;2024-01-06T09:40:25;1.38;;;1.00;;
52868;SDS011;39100;53.480;6.158;2024-01-06T09:42:51;4.30;;;0.98;;
52868;SDS011;39100;53.480;6.158;2024-01-06T09:45:18;3.03;;;1.10;;
52868;SDS011;39100;53.480;6.158;2024-01-06T09:47:47;3.25;;;0.80;;
52868;SDS011;39100;53.480;6.158;2024-01-06T09:50:15;3.08;;;1.10;;
52868;SDS011;39100;53.480;6.158;2024-01-06T09:52:45;3.35;;;1.50;;
52868;SDS011;39100;53.480;6.158;2024-01-06T09:55:17;1.65;;;1.13;;
52868;SDS011;39100;53.480;6.158;2024-01-06T09:57:47;1.33;;;1.10;;
52868;SDS011;39100;53.480;6.158;2024-01-06T10:00:12;1.85;;;1.10;;
52868;SDS011;39100;53.480;6.158;2024-01-06T10:02:38;2.28;;;1.33;;
52868;SDS011;39100;53.480;6.158;2024-01-06T10:05:05;1.42;;;1.08;;
52868;SDS011;39100;53.480;6.158;2024-01-06T10:07:31;4.75;;;1.48;;
52868;SDS011;39100;53.480;6.158;2024-01-06T10:09:57;3.08;;;1.10;;
52868;SDS011;39100;53.480;6.158;2024-01-06T10:12:23;2.70;;;0.90;;
52868;SDS011;39100;53.480;6.158;2024-01-06T10:14:50;2.53;;;1.55;;
52868;SDS011;39100;53.480;6.158;2024-01-06T10:17:16;2.45;;;1.20;;
52868;SDS011;39100;53.480;6.158;2024-01-06T10:19:44;2.17;;;0.77;;
52868;SDS011;39100;53.480;6.158;2024-01-06T10:22:10;2.08;;;1.17;;
52868;SDS011;39100;53.480;6.158;2024-01-06T10:24:39;2.13;;;1.05;;
52868;SDS011;39100;53.480;6.158;2024-01-06T10:27:05;1.33;;;1.00;;
52868;SDS011;39100;53.480;6.158;2024-01-06T10:29:31;3.22;;;1.02;;
52868;SDS011;39100;53.480;6.158;2024-01-06T10:31:58;2.25;;;1.23;;
52868;SDS011;39100;53.480;6.158;2024-01-06T10:34:24;2.83;;;1.50;;
52868;SDS011;39100;53.480;6.158;2024-01-06T10:36:50;2.47;;;1.25;;
52868;SDS011;39100;53.480;6.158;2024-01-06T10:39:19;2.15;;;1.48;;
52868;SDS011;39100;53.480;6.158;2024-01-06T10:41:47;3.17;;;1.30;;
52868;SDS011;39100;53.480;6.158;2024-01-06T10:44:14;3.83;;;1.73;;
52868;SDS011;39100;53.480;6.158;2024-01-06T10:46:40;2.63;;;1.40;;
52868;SDS011;39100;53.480;6.158;2024-01-06T10:49:07;4.63;;;1.15;;
52868;SDS011;39100;53.480;6.158;2024-01-06T10:51:37;2.83;;;1.60;;
52868;SDS011;39100;53.480;6.158;2024-01-06T10:54:03;2.30;;;1.45;;
52868;SDS011;39100;53.480;6.158;2024-01-06T10:56:30;3.38;;;1.30;;
52868;SDS011;39100;53.480;6.158;2024-01-06T10:59:03;2.90;;;1.45;;
52868;SDS011;39100;53.480;6.158;2024-01-06T11:01:29;1.80;;;1.30;;
52868;SDS011;39100;53.480;6.158;2024-01-06T11:03:55;3.95;;;1.40;;
52868;SDS011;39100;53.480;6.158;2024-01-06T11:06:21;3.25;;;1.50;;
52868;SDS011;39100;53.480;6.158;2024-01-06T11:09:21;5.00;;;1.40;;
52868;SDS011;39100;53.480;6.158;2024-01-06T11:11:39;3.38;;;1.77;;
52868;SDS011;39100;53.480;6.158;2024-01-06T11:14:26;5.35;;;2.15;;
52868;SDS011;39100;53.480;6.158;2024-01-06T11:16:58;7.85;;;1.75;;
52868;SDS011;39100;53.480;6.158;2024-01-06T11:25:05;2.70;;;1.67;;
52868;SDS011;39100;53.480;6.158;2024-01-06T11:27:38;4.32;;;1.90;;
52868;SDS011;39100;53.480;6.158;2024-01-06T11:30:04;3.55;;;2.00;;
52868;SDS011;39100;53.480;6.158;2024-01-06T11:35:08;4.13;;;2.00;;
52868;SDS011;39100;53.480;6.158;2024-01-06T11:37:36;3.83;;;1.67;;
52868;SDS011;39100;53.480;6.158;2024-01-06T11:40:08;3.45;;;1.77;;
52868;SDS011;39100;53.480;6.158;2024-01-06T11:43:31;4.63;;;1.75;;
52868;SDS011;39100;53.480;6.158;2024-01-06T11:45:33;2.88;;;1.67;;
52868;SDS011;39100;53.480;6.158;2024-01-06T11:48:01;3.05;;;1.67;;
52868;SDS011;39100;53.480;6.158;2024-01-06T11:50:29;3.08;;;2.17;;
52868;SDS011;39100;53.480;6.158;2024-01-06T11:52:57;3.17;;;1.85;;
52868;SDS011;39100;53.480;6.158;2024-01-06T11:55:23;3.33;;;2.10;;
52868;SDS011;39100;53.480;6.158;2024-01-06T11:57:49;2.70;;;1.77;;
52868;SDS011;39100;53.480;6.158;2024-01-06T12:00:15;4.55;;;1.65;;
52868;SDS011;39100;53.480;6.158;2024-01-06T12:02:42;3.50;;;2.08;;
52868;SDS011;39100;53.480;6.158;2024-01-06T12:05:17;2.67;;;2.20;;
52868;SDS011;39100;53.480;6.158;2024-01-06T12:07:43;5.53;;;2.50;;
52868;SDS011;39100;53.480;6.158;2024-01-06T12:10:20;7.38;;;2.45;;
52868;SDS011;39100;53.480;6.158;2024-01-06T12:13:00;4.80;;;2.35;;
52868;SDS011;39100;53.480;6.158;2024-01-06T12:15:27;3.83;;;2.35;;
52868;SDS011;39100;53.480;6.158;2024-01-06T12:17:54;4.53;;;2.20;;
52868;SDS011;39100;53.480;6.158;2024-01-06T12:20:20;2.92;;;1.42;;
52868;SDS011;39100;53.480;6.158;2024-01-06T12:22:47;3.13;;;2.25;;
52868;SDS011;39100;53.480;6.158;2024-01-06T12:25:14;4.93;;;2.92;;
52868;SDS011;39100;53.480;6.158;2024-01-06T12:27:43;4.07;;;2.15;;
52868;SDS011;39100;53.480;6.158;2024-01-06T12:30:16;5.35;;;2.70;;
52868;SDS011;39100;53.480;6.158;2024-01-06T12:32:46;4.85;;;2.83;;
52868;SDS011;39100;53.480;6.158;2024-01-06T12:35:14;6.03;;;3.15;;
52868;SDS011;39100;53.480;6.158;2024-01-06T12:37:41;4.15;;;2.97;;
52868;SDS011;39100;53.480;6.158;2024-01-06T12:40:08;4.65;;;2.72;;
52868;SDS011;39100;53.480;6.158;2024-01-06T12:42:35;7.57;;;3.10;;
52868;SDS011;39100;53.480;6.158;2024-01-06T12:45:01;7.32;;;4.18;;
52868;SDS011;39100;53.480;6.158;2024-01-06T12:47:27;5.82;;;3.05;;
52868;SDS011;39100;53.480;6.158;2024-01-06T12:49:53;5.03;;;2.85;;
52868;SDS011;39100;53.480;6.158;2024-01-06T12:52:18;3.83;;;1.77;;
52868;SDS011;39100;53.480;6.158;2024-01-06T12:54:44;3.47;;;2.13;;
52868;SDS011;39100;53.480;6.158;2024-01-06T12:57:11;4.60;;;2.28;;
52868;SDS011;39100;53.480;6.158;2024-01-06T12:59:37;3.88;;;1.95;;
52868;SDS011;39100;53.480;6.158;2024-01-06T13:02:02;2.25;;;1.52;;
52868;SDS011;39100;53.480;6.158;2024-01-06T13:04:28;4.60;;;1.95;;
52868;SDS011;39100;53.480;6.158;2024-01-06T13:06:53;3.10;;;2.17;;
52868;SDS011;39100;53.480;6.158;2024-01-06T13:09:19;2.13;;;1.73;;
52868;SDS011;39100;53.480;6.158;2024-01-06T13:11:48;4.80;;;1.73;;
52868;SDS011;39100;53.480;6.158;2024-01-06T13:14:15;3.10;;;1.35;;
52868;SDS011;39100;53.480;6.158;2024-01-06T13:16:41;2.90;;;1.70;;
52868;SDS011;39100;53.480;6.158;2024-01-06T13:19:07;5.53;;;1.70;;
52868;SDS011;39100;53.480;6.158;2024-01-06T13:21:32;4.60;;;1.73;;
52868;SDS011;39100;53.480;6.158;2024-01-06T13:23:58;3.00;;;1.67;;
52868;SDS011;39100;53.480;6.158;2024-01-06T13:26:26;2.58;;;1.15;;
52868;SDS011;39100;53.480;6.158;2024-01-06T13:28:53;2.50;;;1.40;;
52868;SDS011;39100;53.480;6.158;2024-01-06T13:31:18;1.83;;;1.20;;
52868;SDS011;39100;53.480;6.158;2024-01-06T13:33:45;4.50;;;1.70;;
52868;SDS011;39100;53.480;6.158;2024-01-06T13:36:11;3.40;;;1.75;;
52868;SDS011;39100;53.480;6.158;2024-01-06T13:38:36;3.50;;;1.55;;
52868;SDS011;39100;53.480;6.158;2024-01-06T13:41:02;2.95;;;1.38;;
52868;SDS011;39100;53.480;6.158;2024-01-06T13:43:28;2.65;;;2.00;;
52868;SDS011;39100;53.480;6.158;2024-01-06T13:45:54;2.47;;;1.70;;
52868;SDS011;39100;53.480;6.158;2024-01-06T13:48:20;2.50;;;2.25;;
52868;SDS011;39100;53.480;6.158;2024-01-06T13:50:46;1.92;;;1.55;;
52868;SDS011;39100;53.480;6.158;2024-01-06T13:53:12;2.25;;;1.52;;
52868;SDS011;39100;53.480;6.158;2024-01-06T13:55:39;3.85;;;1.48;;
52868;SDS011;39100;53.480;6.158;2024-01-06T13:58:05;5.20;;;2.03;;
52868;SDS011;39100;53.480;6.158;2024-01-06T14:00:30;3.67;;;1.50;;
52868;SDS011;39100;53.480;6.158;2024-01-06T14:02:56;6.55;;;2.63;;
52868;SDS011;39100;53.480;6.158;2024-01-06T14:05:22;5.70;;;2.75;;
52868;SDS011;39100;53.480;6.158;2024-01-06T14:07:48;4.38;;;2.28;;
52868;SDS011;39100;53.480;6.158;2024-01-06T14:10:15;3.15;;;1.73;;
52868;SDS011;39100;53.480;6.158;2024-01-06T14:12:41;2.63;;;1.55;;
52868;SDS011;39100;53.480;6.158;2024-01-06T14:15:07;3.35;;;1.77;;
52868;SDS011;39100;53.480;6.158;2024-01-06T14:17:34;4.55;;;2.08;;
52868;SDS011;39100;53.480;6.158;2024-01-06T14:19:59;3.22;;;1.50;;
52868;SDS011;39100;53.480;6.158;2024-01-06T14:22:27;1.60;;;1.20;;
52868;SDS011;39100;53.480;6.158;2024-01-06T14:24:52;3.00;;;1.15;;
52868;SDS011;39100;53.480;6.158;2024-01-06T14:27:18;2.03;;;1.27;;
52868;SDS011;39100;53.480;6.158;2024-01-06T14:29:44;1.90;;;1.10;;
52868;SDS011;39100;53.480;6.158;2024-01-06T14:32:10;1.48;;;1.00;;
52868;SDS011;39100;53.480;6.158;2024-01-06T14:34:36;2.15;;;0.82;;
52868;SDS011;39100;53.480;6.158;2024-01-06T14:37:01;2.45;;;1.00;;
52868;SDS011;39100;53.480;6.158;2024-01-06T14:39:27;1.27;;;0.95;;
52868;SDS011;39100;53.480;6.158;2024-01-06T14:41:53;1.95;;;0.70;;
52868;SDS011;39100;53.480;6.158;2024-01-06T14:44:18;0.82;;;0.70;;
52868;SDS011;39100;53.480;6.158;2024-01-06T14:46:47;1.85;;;0.70;;
52868;SDS011;39100;53.480;6.158;2024-01-06T14:49:15;2.72;;;0.88;;
52868;SDS011;39100;53.480;6.158;2024-01-06T14:51:41;5.68;;;0.90;;